sensor_id;sensor_type;location;lat;lon;timestamp;pressure;altitude;pressure_sealevel;temperature;humidity
31346;BME280;21711;49.708;18.568;2023-12-04T00:00:48;97893.53;;;-3.02;100.00
31346;BME280;21711;49.708;18.568;2023-12-04T00:03:15;97894.75;;;-2.89;100.00
31346;BME280;21711;49.708;18.568;2023-12-04T00:05:43;97887.66;;;-2.87;100.00
31346;BME280;21711;49.708;18.568;2023-12-04T00:08:11;97886.97;;;-2.81;100.00
31346;BME280;21711;49.708;18.568;2023-12-04T00:10:39;97884.94;;;-2.94;100.00
31346;BME280;21711;49.708;18.568;2023-12-04T00:13:06;97889.91;;;-2.93;100.00
31346;BME280;21711;49.708;18.568;2023-12-04T00:15:33;97888.19;;;-3.00;100.00
31346;BME280;21711;49.708;18.568;2023-12-04T00:18:01;97896.66;;;-3.15;100.00
31346;BME280;21711;49.708;18.568;2023-12-04T00:20:29;97894.53;;;-3.11;100.00
31346;BME280;21711;49.708;18.568;2023-12-04T00:22:57;97897.13;;;-3.11;100.00
31346;BME280;21711;49.708;18.568;2023-12-04T00:25:25;97895.75;;;-3.22;100.00
31346;BME280;21711;49.708;18.568;2023-12-04T00:27:53;97898.81;;;-3.27;100.00
31346;BME280;21711;49.708;18.568;2023-12-04T00:30:20;97900.13;;;-3.31;100.00
31346;BME280;21711;49.708;18.568;2023-12-04T00:32:48;97894.28;;;-3.25;100.00
31346;BME280;21711;49.708;18.568;2023-12-04T00:35:15;97900.78;;;-3.29;100.00
31346;BME280;21711;49.708;18.568;2023-12-04T00:37:43;97895.78;;;-3.39;100.00
31346;BME280;21711;49.708;18.568;2023-12-04T00:40:10;97903.91;;;-3.42;100.00
31346;BME280;21711;49.708;18.568;2023-12-04T00:42:38;97901.47;;;-3.44;100.00
31346;BME280;21711;49.708;18.568;2023-12-04T00:45:06;97898.66;;;-3.25;100.00
31346;BME280;21711;49.708;18.568;2023-12-04T00:47:33;97899.94;;;-3.30;100.00
31346;BME280;21711;49.708;18.568;2023-12-04T00:50:01;97896.06;;;-3.25;100.00
31346;BME280;21711;49.708;18.568;2023-12-04T00:52:29;97895.31;;;-3.42;100.00
31346;BME280;21711;49.708;18.568;2023-12-04T00:54:56;97897.59;;;-3.48;100.00
31346;BME280;21711;49.708;18.568;2023-12-04T00:57:23;97904.50;;;-3.32;100.00
31346;BME280;21711;49.708;18.568;2023-12-04T00:59:51;97912.09;;;-3.30;100.00
31346;BME280;21711;49.708;18.568;2023-12-04T01:02:18;97905.66;;;-3.34;100.00
31346;BME280;21711;49.708;18.568;2023-12-04T01:04:46;97910.22;;;-3.53;100.00
31346;BME280;21711;49.708;18.568;2023-12-04T01:07:13;97911.97;;;-3.45;100.00
31346;BME280;21711;49.708;18.568;2023-12-04T01:09:41;97918.88;;;-3.29;100.00
31346;BME280;21711;49.708;18.568;2023-12-04T01:12:08;97910.75;;;-3.26;100.00
31346;BME280;21711;49.708;18.568;2023-12-04T01:14:35;97913.72;;;-3.37;100.00
31346;BME280;21711;49.708;18.568;2023-12-04T01:17:05;97906.78;;;-3.37;100.00
31346;BME280;21711;49.708;18.568;2023-12-04T01:19:33;97924.75;;;-3.44;100.00
31346;BME280;21711;49.708;18.568;2023-12-04T01:22:00;97910.66;;;-3.41;100.00
31346;BME280;21711;49.708;18.568;2023-12-04T01:24:28;97917.63;;;-3.50;100.00
31346;BME280;21711;49.708;18.568;2023-12-04T01:26:55;97915.34;;;-3.36;100.00
31346;BME280;21711;49.708;18.568;2023-12-04T01:29:23;97916.69;;;-3.49;100.00
31346;BME280;21711;49.708;18.568;2023-12-04T01:31:51;97912.75;;;-3.45;100.00
31346;BME280;21711;49.708;18.568;2023-12-04T01:34:18;97917.59;;;-3.33;100.00
31346;BME280;21711;49.708;18.568;2023-12-04T01:36:45;97915.94;;;-3.26;100.00
31346;BME280;21711;49.708;18.568;2023-12-04T01:39:13;97918.31;;;-3.64;100.00
31346;BME280;21711;49.708;18.568;2023-12-04T01:41:40;97912.94;;;-3.46;100.00
31346;BME280;21711;49.708;18.568;2023-12-04T01:44:08;97917.28;;;-3.38;100.00
31346;BME280;21711;49.708;18.568;2023-12-04T01:46:36;97919.50;;;-3.27;100.00
31346;BME280;21711;49.708;18.568;2023-12-04T01:49:04;97914.03;;;-3.40;100.00
31346;BME280;21711;49.708;18.568;2023-12-04T01:51:32;97918.56;;;-3.34;100.00
31346;BME280;21711;49.708;18.568;2023-12-04T01:54:00;97918.06;;;-3.30;100.00
31346;BME280;21711;49.708;18.568;2023-12-04T01:56:30;97914.84;;;-3.32;100.00
31346;BME280;21711;49.708;18.568;2023-12-04T01:58:58;97914.88;;;-3.48;100.00
31346;BME280;21711;49.708;18.568;2023-12-04T02:01:26;97919.19;;;-3.32;100.00
31346;BME280;21711;49.708;18.568;2023-12-04T02:03:55;97919.66;;;-3.20;100.00
31346;BME280;21711;49.708;18.568;2023-12-04T02:06:24;97919.50;;;-3.19;100.00
31346;BME280;21711;49.708;18.568;2023-12-04T02:08:52;97916.09;;;-3.19;100.00
31346;BME280;21711;49.708;18.568;2023-12-04T02:11:19;97919.53;;;-3.35;100.00
31346;BME280;21711;49.708;18.568;2023-12-04T02:13:47;97917.56;;;-3.25;100.00
31346;BME280;21711;49.708;18.568;2023-12-04T02:16:15;97912.03;;;-3.13;100.00
31346;BME280;21711;49.708;18.568;2023-12-04T02:18:43;97907.22;;;-3.25;100.00
31346;BME280;21711;49.708;18.568;2023-12-04T02:21:11;97908.16;;;-3.18;100.00
31346;BME280;21711;49.708;18.568;2023-12-04T02:23:38;97908.16;;;-3.18;100.00
31346;BME280;21711;49.708;18.568;2023-12-04T02:26:12;97911.56;;;-3.17;100.00
31346;BME280;21711;49.708;18.568;2023-12-04T02:28:42;97906.28;;;-3.40;100.00
31346;BME280;21711;49.708;18.568;2023-12-04T02:31:12;97902.91;;;-3.33;100.00
31346;BME280;21711;49.708;18.568;2023-12-04T02:33:41;97900.78;;;-3.29;100.00
31346;BME280;21711;49.708;18.568;2023-12-04T02:36:10;97907.47;;;-3.51;100.00
31346;BME280;21711;49.708;18.568;2023-12-04T02:38:37;97901.31;;;-3.42;100.00
31346;BME280;21711;49.708;18.568;2023-12-04T02:41:05;97900.50;;;-3.42;100.00
31346;BME280;21711;49.708;18.568;2023-12-04T02:43:33;97900.16;;;-3.39;100.00
31346;BME280;21711;49.708;18.568;2023-12-04T02:46:00;97902.56;;;-3.38;100.00
31346;BME280;21711;49.708;18.568;2023-12-04T02:48:28;97892.59;;;-3.49;100.00
31346;BME280;21711;49.708;18.568;2023-12-04T02:50:56;97893.72;;;-3.52;100.00
31346;BME280;21711;49.708;18.568;2023-12-04T02:53:23;97899.81;;;-3.36;100.00
31346;BME280;21711;49.708;18.568;2023-12-04T02:55:50;97891.88;;;-3.35;100.00
31346;BME280;21711;49.708;18.568;2023-12-04T02:58:18;97892.34;;;-3.31;100.00
31346;BME280;21711;49.708;18.568;2023-12-04T03:00:45;97901.38;;;-3.19;100.00
31346;BME280;21711;49.708;18.568;2023-12-04T03:03:12;97907.81;;;-3.14;100.00
31346;BME280;21711;49.708;18.568;2023-12-04T03:05:40;97911.03;;;-3.12;100.00
31346;BME280;21711;49.708;18.568;2023-12-04T03:08:07;97898.94;;;-3.20;100.00
31346;BME280;21711;49.708;18.568;2023-12-04T03:10:35;97898.50;;;-3.24;100.00
31346;BME280;21711;49.708;18.568;2023-12-04T03:13:02;97911.75;;;-3.27;100.00
31346;BME280;21711;49.708;18.568;2023-12-04T03:15:30;97905.94;;;-3.29;100.00
31346;BME280;21711;49.708;18.568;2023-12-04T03:17:59;97905.09;;;-3.21;100.00
31346;BME280;21711;49.708;18.568;2023-12-04T03:20:32;97906.25;;;-3.24;100.00
31346;BME280;21711;49.708;18.568;2023-12-04T03:23:00;97909.31;;;-3.20;100.00
31346;BME280;21711;49.708;18.568;2023-12-04T03:25:27;97917.13;;;-3.37;100.00
31346;BME280;21711;49.708;18.568;2023-12-04T03:27:55;97911.75;;;-3.35;100.00
31346;BME280;21711;49.708;18.568;2023-12-04T03:30:22;97914.78;;;-3.23;100.00
31346;BME280;21711;49.708;18.568;2023-12-04T03:32:49;97909.13;;;-3.19;100.00
31346;BME280;21711;49.708;18.568;2023-12-04T03:35:17;97917.13;;;-3.37;100.00
31346;BME280;21711;49.708;18.568;2023-12-04T03:37:44;97911.75;;;-3.35;100.00
31346;BME280;21711;49.708;18.568;2023-12-04T03:40:12;97929.25;;;-3.37;100.00
31346;BME280;21711;49.708;18.568;2023-12-04T03:42:39;97920.56;;;-3.53;100.00
31346;BME280;21711;49.708;18.568;2023-12-04T03:45:08;97921.50;;;-3.37;100.00
31346;BME280;21711;49.708;18.568;2023-12-04T03:47:36;97925.53;;;-3.35;100.00
31346;BME280;21711;49.708;18.568;2023-12-04T03:50:05;97924.44;;;-3.49;100.00
31346;BME280;21711;49.708;18.568;2023-12-04T03:52:32;97924.44;;;-3.49;100.00
31346;BME280;21711;49.708;18.568;2023-12-04T03:55:00;97926.97;;;-3.40;100.00
31346;BME280;21711;49.708;18.568;2023-12-04T03:57:27;97929.78;;;-3.50;100.00
31346;BME280;21711;49.708;18.568;2023-12-04T03:59:55;97933.66;;;-3.54;100.00
31346;BME280;21711;49.708;18.568;2023-12-04T04:02:22;97934.59;;;-3.47;100.00
31346;BME280;21711;49.708;18.568;2023-12-04T04:04:49;97925.44;;;-3.58;100.00
31346;BME280;21711;49.708;18.568;2023-12-04T04:07:17;97928.47;;;-3.46;100.00
31346;BME280;21711;49.708;18.568;2023-12-04T04:09:45;97938.66;;;-3.53;100.00
31346;BME280;21711;49.708;18.568;2023-12-04T04:12:12;97925.44;;;-3.58;100.00
31346;BME280;21711;49.708;18.568;2023-12-04T04:14:39;97937.84;;;-3.53;100.00
31346;BME280;21711;49.708;18.568;2023-12-04T04:17:07;97932.66;;;-3.45;100.00
31346;BME280;21711;49.708;18.568;2023-12-04T04:19:34;97936.38;;;-3.48;100.00
31346;BME280;21711;49.708;18.568;2023-12-04T04:22:02;97934.94;;;-3.42;100.00
31346;BME280;21711;49.708;18.568;2023-12-04T04:24:29;97925.25;;;-3.57;100.00
31346;BME280;21711;49.708;18.568;2023-12-04T04:26:57;97932.50;;;-3.44;100.00
31346;BME280;21711;49.708;18.568;2023-12-04T04:29:24;97929.09;;;-3.44;100.00
31346;BME280;21711;49.708;18.568;2023-12-04T04:31:52;97933.16;;;-3.50;100.00
31346;BME280;21711;49.708;18.568;2023-12-04T04:34:21;97926.66;;;-3.46;100.00
31346;BME280;21711;49.708;18.568;2023-12-04T04:36:48;97926.03;;;-3.39;100.00
31346;BME280;21711;49.708;18.568;2023-12-04T04:39:16;97920.38;;;-3.43;100.00
31346;BME280;21711;49.708;18.568;2023-12-04T04:41:44;97926.97;;;-3.40;100.00
31346;BME280;21711;49.708;18.568;2023-12-04T04:44:12;97925.06;;;-3.38;100.00
31346;BME280;21711;49.708;18.568;2023-12-04T04:46:39;97926.56;;;-3.61;100.00
31346;BME280;21711;49.708;18.568;2023-12-04T04:49:07;97934.28;;;-3.44;100.00
31346;BME280;21711;49.708;18.568;2023-12-04T04:51:34;97926.25;;;-3.66;100.00
31346;BME280;21711;49.708;18.568;2023-12-04T04:54:02;97921.72;;;-3.80;100.00
31346;BME280;21711;49.708;18.568;2023-12-04T04:56:30;97932.25;;;-3.82;100.00
31346;BME280;21711;49.708;18.568;2023-12-04T04:58:57;97931.75;;;-3.77;100.00
31346;BME280;21711;49.708;18.568;2023-12-04T05:01:25;97925.75;;;-3.78;100.00
31346;BME280;21711;49.708;18.568;2023-12-04T05:03:52;97913.34;;;-3.91;100.00
31346;BME280;21711;49.708;18.568;2023-12-04T05:06:21;97926.13;;;-4.14;100.00
31346;BME280;21711;49.708;18.568;2023-12-04T05:08:49;97924.97;;;-4.37;100.00
31346;BME280;21711;49.708;18.568;2023-12-04T05:11:20;97921.06;;;-4.66;100.00
31346;BME280;21711;49.708;18.568;2023-12-04T05:13:48;97921.50;;;-4.87;100.00
31346;BME280;21711;49.708;18.568;2023-12-04T05:16:15;97919.00;;;-5.05;100.00
31346;BME280;21711;49.708;18.568;2023-12-04T05:18:42;97920.72;;;-5.22;100.00
31346;BME280;21711;49.708;18.568;2023-12-04T05:21:11;97923.53;;;-5.42;100.00
31346;BME280;21711;49.708;18.568;2023-12-04T05:23:38;97921.22;;;-5.53;100.00
31346;BME280;21711;49.708;18.568;2023-12-04T05:26:07;97918.59;;;-5.62;100.00
31346;BME280;21711;49.708;18.568;2023-12-04T05:28:35;97912.25;;;-5.68;100.00
31346;BME280;21711;49.708;18.568;2023-12-04T05:31:02;97914.19;;;-5.70;100.00
31346;BME280;21711;49.708;18.568;2023-12-04T05:33:30;97908.72;;;-5.67;100.00
31346;BME280;21711;49.708;18.568;2023-12-04T05:35:59;97913.66;;;-5.73;100.00
31346;BME280;21711;49.708;18.568;2023-12-04T05:38:27;97907.03;;;-5.84;100.00
31346;BME280;21711;49.708;18.568;2023-12-04T05:40:54;97906.56;;;-5.79;100.00
31346;BME280;21711;49.708;18.568;2023-12-04T05:43:22;97912.81;;;-5.82;100.00
31346;BME280;21711;49.708;18.568;2023-12-04T05:45:49;97904.38;;;-5.92;100.00
31346;BME280;21711;49.708;18.568;2023-12-04T05:48:18;97900.31;;;-6.03;100.00
31346;BME280;21711;49.708;18.568;2023-12-04T05:50:46;97888.41;;;-6.04;100.00
31346;BME280;21711;49.708;18.568;2023-12-04T05:53:13;97895.47;;;-5.98;100.00
31346;BME280;21711;49.708;18.568;2023-12-04T05:55:41;97892.75;;;-5.97;100.00
31346;BME280;21711;49.708;18.568;2023-12-04T05:58:08;97895.91;;;-5.85;100.00
31346;BME280;21711;49.708;18.568;2023-12-04T06:00:36;97888.44;;;-5.70;100.00
31346;BME280;21711;49.708;18.568;2023-12-04T06:03:03;97886.59;;;-5.43;100.00
31346;BME280;21711;49.708;18.568;2023-12-04T06:05:31;97875.91;;;-5.21;100.00
31346;BME280;21711;49.708;18.568;2023-12-04T06:07:58;97880.31;;;-5.05;100.00
31346;BME280;21711;49.708;18.568;2023-12-04T06:10:26;97880.47;;;-4.98;100.00
31346;BME280;21711;49.708;18.568;2023-12-04T06:12:53;97883.06;;;-4.98;100.00
31346;BME280;21711;49.708;18.568;2023-12-04T06:15:21;97882.44;;;-4.92;100.00
31346;BME280;21711;49.708;18.568;2023-12-04T06:17:48;97885.19;;;-4.85;100.00
31346;BME280;21711;49.708;18.568;2023-12-04T06:20:16;97882.78;;;-4.79;100.00
31346;BME280;21711;49.708;18.568;2023-12-04T06:22:43;97883.63;;;-4.62;100.00
31346;BME280;21711;49.708;18.568;2023-12-04T06:25:11;97891.69;;;-4.56;100.00
31346;BME280;21711;49.708;18.568;2023-12-04T06:27:39;97894.63;;;-4.51;100.00
31346;BME280;21711;49.708;18.568;2023-12-04T06:30:07;97886.06;;;-4.52;100.00
31346;BME280;21711;49.708;18.568;2023-12-04T06:32:35;97890.28;;;-4.34;100.00
31346;BME280;21711;49.708;18.568;2023-12-04T06:35:03;97889.78;;;-4.29;100.00
31346;BME280;21711;49.708;18.568;2023-12-04T06:37:31;97880.41;;;-4.30;100.00
31346;BME280;21711;49.708;18.568;2023-12-04T06:40:00;97878.66;;;-4.30;100.00
31346;BME280;21711;49.708;18.568;2023-12-04T06:42:30;97879.28;;;-4.36;100.00
31346;BME280;21711;49.708;18.568;2023-12-04T06:44:58;97870.88;;;-4.55;100.00
31346;BME280;21711;49.708;18.568;2023-12-04T06:47:26;97876.81;;;-4.71;100.00
31346;BME280;21711;49.708;18.568;2023-12-04T06:49:57;97889.38;;;-4.93;100.00
31346;BME280;21711;49.708;18.568;2023-12-04T06:52:25;97888.81;;;-5.13;100.00
31346;BME280;21711;49.708;18.568;2023-12-04T06:54:52;97891.03;;;-5.26;100.00
31346;BME280;21711;49.708;18.568;2023-12-04T06:57:19;97882.75;;;-5.38;100.00
31346;BME280;21711;49.708;18.568;2023-12-04T06:59:47;97900.28;;;-5.50;100.00
31346;BME280;21711;49.708;18.568;2023-12-04T07:02:14;97894.19;;;-5.41;100.00
31346;BME280;21711;49.708;18.568;2023-12-04T07:04:41;97898.44;;;-5.32;100.00
31346;BME280;21711;49.708;18.568;2023-12-04T07:07:09;97902.75;;;-5.41;100.00
31346;BME280;21711;49.708;18.568;2023-12-04T07:09:36;97895.84;;;-5.32;100.00
31346;BME280;21711;49.708;18.568;2023-12-04T07:12:04;97895.06;;;-5.32;100.00
31346;BME280;21711;49.708;18.568;2023-12-04T07:14:32;97899.25;;;-5.23;100.00
31346;BME280;21711;49.708;18.568;2023-12-04T07:17:00;97898.47;;;-5.23;100.00
31346;BME280;21711;49.708;18.568;2023-12-04T07:19:28;97899.97;;;-5.04;100.00
31346;BME280;21711;49.708;18.568;2023-12-04T07:21:56;97898.09;;;-4.85;100.00
31346;BME280;21711;49.708;18.568;2023-12-04T07:24:23;97902.19;;;-4.58;100.00
31346;BME280;21711;49.708;18.568;2023-12-04T07:26:51;97900.44;;;-4.32;100.00
31346;BME280;21711;49.708;18.568;2023-12-04T07:29:18;97905.91;;;-4.19;100.00
31346;BME280;21711;49.708;18.568;2023-12-04T07:31:46;97904.94;;;-3.93;100.00
31346;BME280;21711;49.708;18.568;2023-12-04T07:34:13;97909.72;;;-3.57;100.00
31346;BME280;21711;49.708;18.568;2023-12-04T07:36:41;97920.94;;;-3.16;100.00
31346;BME280;21711;49.708;18.568;2023-12-04T07:39:08;97923.66;;;-2.46;100.00
31346;BME280;21711;49.708;18.568;2023-12-04T07:41:36;97928.38;;;-1.49;100.00
31346;BME280;21711;49.708;18.568;2023-12-04T07:44:04;97923.22;;;-0.23;100.00
31346;BME280;21711;49.708;18.568;2023-12-04T07:46:31;97938.47;;;1.01;100.00
31346;BME280;21711;49.708;18.568;2023-12-04T07:48:59;97939.88;;;1.66;100.00
31346;BME280;21711;49.708;18.568;2023-12-04T07:51:26;97940.91;;;2.32;100.00
31346;BME280;21711;49.708;18.568;2023-12-04T07:53:54;97949.28;;;3.34;69.73
31346;BME280;21711;49.708;18.568;2023-12-04T07:56:21;97936.28;;;3.92;61.95
31346;BME280;21711;49.708;18.568;2023-12-04T07:58:49;97952.50;;;5.45;58.92
31346;BME280;21711;49.708;18.568;2023-12-04T08:01:16;97954.31;;;6.90;54.46
31346;BME280;21711;49.708;18.568;2023-12-04T08:03:44;97946.41;;;7.89;50.99
31346;BME280;21711;49.708;18.568;2023-12-04T08:06:11;97948.78;;;8.08;47.15
31346;BME280;21711;49.708;18.568;2023-12-04T08:08:39;97942.53;;;9.05;44.29
31346;BME280;21711;49.708;18.568;2023-12-04T08:11:06;97934.75;;;8.53;43.14
31346;BME280;21711;49.708;18.568;2023-12-04T08:13:38;97933.28;;;9.25;42.24
31346;BME280;21711;49.708;18.568;2023-12-04T08:16:13;97937.91;;;9.40;41.73
31346;BME280;21711;49.708;18.568;2023-12-04T08:18:40;97934.72;;;9.65;41.38
31346;BME280;21711;49.708;18.568;2023-12-04T08:21:08;97936.00;;;9.90;40.86
31346;BME280;21711;49.708;18.568;2023-12-04T08:23:36;97940.09;;;10.41;38.96
31346;BME280;21711;49.708;18.568;2023-12-04T08:26:04;97942.69;;;10.36;39.25
31346;BME280;21711;49.708;18.568;2023-12-04T08:28:32;97942.34;;;10.60;38.27
31346;BME280;21711;49.708;18.568;2023-12-04T08:31:00;97941.47;;;10.97;37.29
31346;BME280;21711;49.708;18.568;2023-12-04T08:33:27;97929.13;;;11.24;36.82
31346;BME280;21711;49.708;18.568;2023-12-04T08:35:55;97930.56;;;11.78;36.04
31346;BME280;21711;49.708;18.568;2023-12-04T08:38:22;97933.75;;;11.96;35.22
31346;BME280;21711;49.708;18.568;2023-12-04T08:40:49;97924.56;;;11.03;36.81
31346;BME280;21711;49.708;18.568;2023-12-04T08:43:17;97934.56;;;12.07;34.91
31346;BME280;21711;49.708;18.568;2023-12-04T08:45:46;97928.94;;;12.60;34.45
31346;BME280;21711;49.708;18.568;2023-12-04T08:48:13;97926.09;;;12.10;34.94
31346;BME280;21711;49.708;18.568;2023-12-04T08:50:41;97927.38;;;11.92;35.34
31346;BME280;21711;49.708;18.568;2023-12-04T08:53:08;97932.72;;;12.13;34.14
31346;BME280;21711;49.708;18.568;2023-12-04T08:55:35;97926.69;;;11.01;34.94
31346;BME280;21711;49.708;18.568;2023-12-04T08:58:03;97927.66;;;10.90;34.99
31346;BME280;21711;49.708;18.568;2023-12-04T09:00:32;97931.88;;;10.37;36.57
31346;BME280;21711;49.708;18.568;2023-12-04T09:03:00;97920.63;;;9.82;38.36
31346;BME280;21711;49.708;18.568;2023-12-04T09:05:37;97907.25;;;8.66;39.55
31346;BME280;21711;49.708;18.568;2023-12-04T09:08:05;97902.88;;;7.69;42.62
31346;BME280;21711;49.708;18.568;2023-12-04T09:10:35;97898.38;;;7.06;43.00
31346;BME280;21711;49.708;18.568;2023-12-04T09:13:22;97903.50;;;6.24;44.71
31346;BME280;21711;49.708;18.568;2023-12-04T09:15:50;97896.38;;;5.16;47.72
31346;BME280;21711;49.708;18.568;2023-12-04T09:18:18;97897.91;;;4.48;48.98
31346;BME280;21711;49.708;18.568;2023-12-04T09:20:46;97902.38;;;4.48;49.64
31346;BME280;21711;49.708;18.568;2023-12-04T09:23:14;97906.91;;;5.28;48.02
31346;BME280;21711;49.708;18.568;2023-12-04T09:25:41;97905.06;;;6.73;45.20
31346;BME280;21711;49.708;18.568;2023-12-04T09:28:08;97894.97;;;6.94;44.04
31346;BME280;21711;49.708;18.568;2023-12-04T09:30:36;97879.75;;;6.19;45.20
31346;BME280;21711;49.708;18.568;2023-12-04T09:33:04;97883.19;;;5.22;46.93
31346;BME280;21711;49.708;18.568;2023-12-04T09:35:33;97869.97;;;4.24;50.14
31346;BME280;21711;49.708;18.568;2023-12-04T09:38:01;97857.50;;;3.10;54.04
31346;BME280;21711;49.708;18.568;2023-12-04T09:40:28;97854.69;;;2.66;57.63
31346;BME280;21711;49.708;18.568;2023-12-04T09:42:55;97860.47;;;2.75;57.64
31346;BME280;21711;49.708;18.568;2023-12-04T09:45:24;97854.13;;;2.44;58.87
31346;BME280;21711;49.708;18.568;2023-12-04T09:47:53;97840.78;;;1.93;60.17
31346;BME280;21711;49.708;18.568;2023-12-04T09:50:21;97843.16;;;1.40;63.03
31346;BME280;21711;49.708;18.568;2023-12-04T09:52:50;97838.47;;;1.02;65.70
31346;BME280;21711;49.708;18.568;2023-12-04T09:55:18;97832.44;;;1.01;66.40
31346;BME280;21711;49.708;18.568;2023-12-04T09:57:46;97823.63;;;0.89;67.04
31346;BME280;21711;49.708;18.568;2023-12-04T10:00:16;97815.94;;;0.74;67.75
31346;BME280;21711;49.708;18.568;2023-12-04T10:02:45;97813.56;;;0.79;68.23
31346;BME280;21711;49.708;18.568;2023-12-04T10:05:16;97826.22;;;0.89;68.28
31346;BME280;21711;49.708;18.568;2023-12-04T10:07:43;97813.69;;;1.26;67.95
31346;BME280;21711;49.708;18.568;2023-12-04T10:10:10;97799.03;;;1.12;66.21
31346;BME280;21711;49.708;18.568;2023-12-04T10:12:38;97801.00;;;1.10;66.90
31346;BME280;21711;49.708;18.568;2023-12-04T10:15:11;97799.88;;;1.46;65.71
31346;BME280;21711;49.708;18.568;2023-12-04T10:17:42;97806.25;;;1.91;64.34
31346;BME280;21711;49.708;18.568;2023-12-04T10:20:13;97798.00;;;2.14;62.17
31346;BME280;21711;49.708;18.568;2023-12-04T10:23:00;97799.03;;;1.93;62.39
31346;BME280;21711;49.708;18.568;2023-12-04T10:25:30;97800.06;;;1.51;64.43
31346;BME280;21711;49.708;18.568;2023-12-04T10:28:13;97796.84;;;1.83;63.61
31346;BME280;21711;49.708;18.568;2023-12-04T10:30:42;97796.81;;;1.96;62.66
31346;BME280;21711;49.708;18.568;2023-12-04T10:33:11;97800.19;;;2.17;63.32
31346;BME280;21711;49.708;18.568;2023-12-04T10:35:39;97795.09;;;2.43;60.94
31346;BME280;21711;49.708;18.568;2023-12-04T10:38:08;97798.31;;;2.45;60.68
31346;BME280;21711;49.708;18.568;2023-12-04T10:40:37;97797.69;;;2.49;60.28
31346;BME280;21711;49.708;18.568;2023-12-04T10:45:40;97783.94;;;3.39;58.51
31346;BME280;21711;49.708;18.568;2023-12-04T10:48:09;97789.41;;;4.44;54.16
31346;BME280;21711;49.708;18.568;2023-12-04T10:50:43;97783.25;;;6.02;51.26
31346;BME280;21711;49.708;18.568;2023-12-04T10:53:12;97777.94;;;7.08;47.28
31346;BME280;21711;49.708;18.568;2023-12-04T10:55:41;97774.59;;;7.82;45.40
31346;BME280;21711;49.708;18.568;2023-12-04T10:58:15;97783.41;;;9.32;41.98
31346;BME280;21711;49.708;18.568;2023-12-04T11:00:48;97780.06;;;10.28;38.61
31346;BME280;21711;49.708;18.568;2023-12-04T11:03:32;97780.31;;;11.74;36.17
31346;BME280;21711;49.708;18.568;2023-12-04T11:06:03;97782.97;;;11.84;35.29
31346;BME280;21711;49.708;18.568;2023-12-04T11:08:34;97780.25;;;12.20;34.86
31346;BME280;21711;49.708;18.568;2023-12-04T11:11:05;97768.69;;;11.75;34.87
31346;BME280;21711;49.708;18.568;2023-12-04T11:13:42;97760.19;;;10.95;35.71
31346;BME280;21711;49.708;18.568;2023-12-04T11:18:55;97751.41;;;10.63;37.11
31346;BME280;21711;49.708;18.568;2023-12-04T11:21:24;97748.31;;;11.02;35.32
31346;BME280;21711;49.708;18.568;2023-12-04T11:23:52;97750.78;;;10.40;36.88
31346;BME280;21711;49.708;18.568;2023-12-04T11:26:21;97745.53;;;10.45;36.34
31346;BME280;21711;49.708;18.568;2023-12-04T11:28:49;97740.38;;;9.64;37.59
31346;BME280;21711;49.708;18.568;2023-12-04T11:31:16;97731.28;;;8.84;38.48
31346;BME280;21711;49.708;18.568;2023-12-04T11:33:44;97724.16;;;8.57;39.25
31346;BME280;21711;49.708;18.568;2023-12-04T11:36:12;97729.31;;;8.47;40.48
31346;BME280;21711;49.708;18.568;2023-12-04T11:38:45;97718.84;;;7.85;40.92
31346;BME280;21711;49.708;18.568;2023-12-04T11:41:22;97718.00;;;6.64;44.39
31346;BME280;21711;49.708;18.568;2023-12-04T11:43:56;97710.91;;;5.83;46.46
31346;BME280;21711;49.708;18.568;2023-12-04T11:46:26;97706.53;;;5.05;48.14
31346;BME280;21711;49.708;18.568;2023-12-04T11:48:56;97695.44;;;4.17;51.48
31346;BME280;21711;49.708;18.568;2023-12-04T11:51:51;97692.16;;;3.85;54.42
31346;BME280;21711;49.708;18.568;2023-12-04T11:54:21;97692.53;;;3.70;54.22
31346;BME280;21711;49.708;18.568;2023-12-04T11:57:19;97686.56;;;4.00;54.22
31346;BME280;21711;49.708;18.568;2023-12-04T11:59:48;97689.00;;;4.63;52.71
31346;BME280;21711;49.708;18.568;2023-12-04T12:02:16;97683.59;;;4.76;52.18
31346;BME280;21711;49.708;18.568;2023-12-04T12:04:44;97678.25;;;4.83;52.54
31346;BME280;21711;49.708;18.568;2023-12-04T12:07:15;97668.56;;;4.95;51.65
31346;BME280;21711;49.708;18.568;2023-12-04T12:09:42;97673.28;;;5.41;50.48
31346;BME280;21711;49.708;18.568;2023-12-04T12:12:10;97667.44;;;5.51;50.13
31346;BME280;21711;49.708;18.568;2023-12-04T12:14:38;97665.75;;;5.45;50.31
31346;BME280;21711;49.708;18.568;2023-12-04T12:17:05;97661.81;;;5.83;48.87
31346;BME280;21711;49.708;18.568;2023-12-04T12:19:32;97656.34;;;5.85;48.60
31346;BME280;21711;49.708;18.568;2023-12-04T12:22:00;97654.72;;;5.96;48.42
31346;BME280;21711;49.708;18.568;2023-12-04T12:24:30;97650.31;;;5.72;48.87
31346;BME280;21711;49.708;18.568;2023-12-04T12:26:57;97638.34;;;5.64;49.29
31346;BME280;21711;49.708;18.568;2023-12-04T12:29:25;97644.06;;;5.73;49.70
31346;BME280;21711;49.708;18.568;2023-12-04T12:31:54;97634.06;;;5.99;48.79
31346;BME280;21711;49.708;18.568;2023-12-04T12:34:22;97641.06;;;5.82;48.62
31346;BME280;21711;49.708;18.568;2023-12-04T12:36:49;97635.53;;;5.54;49.60
31346;BME280;21711;49.708;18.568;2023-12-04T12:39:16;97630.06;;;5.32;50.36
31346;BME280;21711;49.708;18.568;2023-12-04T12:41:50;97626.63;;;4.95;51.31
31346;BME280;21711;49.708;18.568;2023-12-04T12:44:18;97615.34;;;3.98;54.18
31346;BME280;21711;49.708;18.568;2023-12-04T12:46:49;97600.38;;;3.67;55.25
31346;BME280;21711;49.708;18.568;2023-12-04T12:49:20;97604.09;;;2.97;57.49
31346;BME280;21711;49.708;18.568;2023-12-04T12:52:06;97596.91;;;2.67;59.42
31346;BME280;21711;49.708;18.568;2023-12-04T12:54:40;97595.84;;;2.17;61.31
31346;BME280;21711;49.708;18.568;2023-12-04T12:57:08;97596.53;;;1.53;64.55
31346;BME280;21711;49.708;18.568;2023-12-04T12:59:38;97593.94;;;1.46;65.51